createdAt,value
2022-09-15T00:02:18.437Z,13.10
2022-09-15T00:04:50.289Z,13.10
2022-09-15T00:07:22.163Z,13.10
2022-09-15T00:09:53.971Z,13.10
2022-09-15T00:12:26.797Z,13.10
2022-09-15T00:15:01.085Z,13.10
2022-09-15T00:17:32.806Z,13.10
2022-09-15T00:20:06.599Z,13.10
2022-09-15T00:22:38.328Z,13.10
2022-09-15T00:25:12.582Z,13.10
2022-09-15T00:27:44.299Z,13.10
2022-09-15T00:30:16.226Z,13.10
2022-09-15T00:32:48.136Z,13.10
2022-09-15T00:35:19.897Z,13.10
2022-09-15T00:37:51.619Z,13.10
2022-09-15T00:40:23.537Z,13.10
2022-09-15T00:42:57.638Z,13.10
2022-09-15T00:45:31.761Z,13.10
2022-09-15T00:48:04.632Z,13.00
2022-09-15T00:50:37.735Z,13.00
2022-09-15T00:53:11.131Z,13.00
2022-09-15T00:55:44.931Z,13.00
2022-09-15T00:58:29.103Z,13.00
2022-09-15T01:01:02.173Z,13.00
2022-09-15T01:03:34.438Z,12.90
2022-09-15T01:06:09.326Z,12.80
2022-09-15T01:08:54.182Z,12.70
2022-09-15T01:11:26.090Z,12.60
2022-09-15T01:13:57.851Z,12.60
2022-09-15T01:16:50.022Z,12.50
2022-09-15T01:19:43.210Z,12.40
2022-09-15T01:22:14.947Z,12.40
2022-09-15T01:25:01.980Z,12.40
2022-09-15T01:27:51.962Z,12.30
2022-09-15T01:30:26.584Z,12.30
2022-09-15T01:33:04.307Z,12.30
2022-09-15T01:35:39.095Z,12.20
2022-09-15T01:38:13.938Z,12.20
2022-09-15T01:40:49.004Z,12.20
2022-09-15T01:43:22.829Z,12.20
2022-09-15T01:45:54.740Z,12.10
2022-09-15T01:48:30.911Z,12.10
2022-09-15T01:51:03.475Z,12.00
2022-09-15T01:53:35.552Z,12.00
2022-09-15T01:56:08.974Z,12.00
2022-09-15T01:58:41.205Z,11.90
2022-09-15T02:01:16.174Z,11.90
2022-09-15T02:03:51.162Z,11.90
2022-09-15T02:06:25.761Z,11.80
2022-09-15T02:09:01.564Z,11.80
2022-09-15T02:11:35.452Z,11.70
2022-09-15T02:14:11.491Z,11.70
2022-09-15T02:16:45.669Z,11.60
2022-09-15T02:19:34.566Z,11.60
2022-09-15T02:22:08.117Z,11.50
2022-09-15T02:24:45.871Z,11.50
2022-09-15T02:27:23.208Z,11.50
2022-09-15T02:29:56.763Z,11.50
2022-09-15T02:32:29.920Z,11.40
2022-09-15T02:35:06.722Z,11.40
2022-09-15T02:37:39.131Z,11.40
2022-09-15T02:40:11.242Z,11.40
2022-09-15T02:42:51.316Z,11.40
2022-09-15T02:45:24.842Z,11.30
2022-09-15T02:47:57.927Z,11.30
2022-09-15T02:50:31.111Z,11.30
2022-09-15T02:53:03.304Z,11.30
2022-09-15T02:55:37.424Z,11.30
2022-09-15T02:58:09.185Z,11.20
2022-09-15T03:00:42.002Z,11.20
2022-09-15T03:03:13.772Z,11.20
2022-09-15T03:05:45.546Z,11.20
2022-09-15T03:08:17.251Z,11.20
2022-09-15T03:10:48.995Z,11.20
2022-09-15T03:13:20.756Z,11.10
2022-09-15T03:15:52.588Z,11.20
2022-09-15T03:18:24.405Z,11.10
2022-09-15T03:20:56.743Z,11.10
2022-09-15T03:23:28.843Z,11.10
2022-09-15T03:26:01.223Z,11.10
2022-09-15T03:28:32.977Z,11.10
2022-09-15T03:31:05.292Z,11.10
2022-09-15T03:33:37.248Z,11.10
2022-09-15T03:36:09.239Z,11.00
2022-09-15T03:38:41.066Z,11.00
2022-09-15T03:41:15.474Z,11.00
2022-09-15T03:43:47.213Z,11.10
2022-09-15T03:46:19.084Z,11.10
2022-09-15T03:48:50.833Z,11.20
2022-09-15T03:51:22.617Z,11.30
2022-09-15T03:53:55.343Z,11.30
2022-09-15T03:56:28.265Z,11.30
2022-09-15T03:59:01.718Z,11.40
2022-09-15T04:01:33.835Z,11.40
2022-09-15T04:04:07.829Z,11.50
2022-09-15T04:06:42.183Z,11.50
2022-09-15T04:09:13.988Z,11.50
2022-09-15T04:11:45.752Z,11.50
2022-09-15T04:14:17.526Z,11.50
2022-09-15T04:16:49.301Z,11.50
2022-09-15T04:19:21.064Z,11.60
2022-09-15T04:21:53.292Z,11.60
2022-09-15T04:24:25.053Z,11.60
2022-09-15T04:26:56.852Z,11.60
2022-09-15T04:29:28.638Z,11.70
2022-09-15T04:32:00.485Z,11.70
2022-09-15T04:34:32.280Z,11.70
2022-09-15T04:37:04.143Z,11.80
2022-09-15T04:39:35.929Z,11.80
2022-09-15T04:42:07.974Z,11.80
2022-09-15T04:44:40.114Z,11.80
2022-09-15T04:47:11.886Z,11.80
2022-09-15T04:49:43.895Z,11.80
2022-09-15T04:52:15.644Z,11.90
2022-09-15T04:54:47.626Z,11.80
2022-09-15T04:57:19.406Z,11.90
2022-09-15T04:59:51.165Z,12.00
2022-09-15T05:02:23.116Z,12.00
2022-09-15T05:04:55.140Z,12.10
2022-09-15T05:07:27.006Z,12.20
2022-09-15T05:09:58.692Z,12.30
2022-09-15T05:12:32.833Z,12.50
2022-09-15T05:15:05.056Z,12.60
2022-09-15T05:17:39.266Z,12.70
2022-09-15T05:20:11.066Z,12.80
2022-09-15T05:22:42.940Z,12.90
2022-09-15T05:25:14.727Z,12.90
2022-09-15T05:27:47.176Z,13.00
2022-09-15T05:30:37.829Z,13.00
2022-09-15T05:33:11.174Z,13.00
2022-09-15T05:35:49.620Z,13.10
2022-09-15T05:38:21.782Z,13.10
2022-09-15T05:40:53.544Z,13.20
2022-09-15T05:43:25.334Z,13.30
2022-09-15T05:45:59.311Z,13.40
2022-09-15T05:48:31.310Z,13.50
2022-09-15T05:51:03.394Z,13.70
2022-09-15T05:53:37.873Z,13.80
2022-09-15T05:56:13.237Z,13.80
2022-09-15T05:58:45.873Z,13.80
2022-09-15T06:01:22.467Z,13.90
2022-09-15T06:03:54.992Z,13.90
2022-09-15T06:06:26.694Z,13.90
2022-09-15T06:08:59.591Z,13.90
2022-09-15T06:11:33.799Z,13.90
2022-09-15T06:14:06.168Z,14.00
2022-09-15T06:16:38.223Z,14.00
2022-09-15T06:19:10.393Z,14.10
2022-09-15T06:21:42.217Z,14.20
2022-09-15T06:24:14.711Z,14.30
2022-09-15T06:26:46.510Z,14.40
2022-09-15T06:29:18.297Z,14.40
2022-09-15T06:31:50.141Z,14.40
2022-09-15T06:34:21.952Z,14.50
2022-09-15T06:36:53.713Z,14.40
2022-09-15T06:39:27.866Z,14.50
2022-09-15T06:42:02.831Z,14.50
2022-09-15T06:44:38.223Z,14.40
2022-09-15T06:47:10.868Z,14.50
2022-09-15T06:49:42.644Z,14.50
2022-09-15T06:52:14.366Z,14.60
2022-09-15T06:54:46.114Z,14.70
2022-09-15T06:57:20.570Z,14.70
2022-09-15T06:59:52.408Z,14.80
2022-09-15T07:02:24.258Z,15.20
2022-09-15T07:04:56.093Z,15.80
2022-09-15T07:07:30.385Z,16.10
2022-09-15T07:10:02.603Z,16.10
2022-09-15T07:12:34.313Z,16.00
2022-09-15T07:15:06.348Z,15.90
2022-09-15T07:17:40.525Z,15.80
2022-09-15T07:20:12.261Z,15.80
2022-09-15T07:22:44.331Z,15.80
2022-09-15T07:25:16.095Z,15.80
2022-09-15T07:27:47.857Z,16.20
2022-09-15T07:30:19.647Z,17.10
2022-09-15T07:32:52.406Z,18.00
2022-09-15T07:35:24.211Z,18.70
2022-09-15T07:37:55.958Z,19.50
2022-09-15T07:40:29.060Z,19.90
2022-09-15T07:43:00.855Z,19.90
2022-09-15T07:45:33.291Z,19.40
2022-09-15T07:48:05.127Z,19.10
2022-09-15T07:50:36.897Z,18.70
2022-09-15T07:53:08.650Z,18.50
2022-09-15T07:55:40.421Z,18.50
2022-09-15T07:58:12.230Z,18.60
2022-09-15T08:00:46.682Z,18.70
2022-09-15T08:03:18.954Z,18.90
2022-09-15T08:05:50.772Z,18.80
2022-09-15T08:08:22.570Z,18.70
2022-09-15T08:10:54.669Z,18.60
2022-09-15T08:13:26.425Z,18.30
2022-09-15T08:16:04.611Z,18.00
2022-09-15T08:18:36.729Z,17.70
2022-09-15T08:21:10.359Z,17.30
2022-09-15T08:23:42.093Z,17.10
2022-09-15T08:26:14.630Z,16.90
2022-09-15T08:28:46.507Z,16.60
2022-09-15T08:31:18.392Z,16.50
2022-09-15T08:33:51.784Z,16.40
2022-09-15T08:36:28.209Z,16.20
2022-09-15T08:39:00.191Z,16.10
2022-09-15T08:41:33.699Z,16.20
2022-09-15T08:44:08.544Z,16.30
2022-09-15T08:46:47.784Z,16.60
2022-09-15T08:49:50.613Z,16.90
2022-09-15T08:52:35.433Z,17.20
2022-09-15T08:55:15.548Z,17.80
2022-09-15T08:57:47.288Z,17.90
2022-09-15T09:00:19.002Z,17.60
2022-09-15T09:03:17.144Z,17.30
2022-09-15T09:06:13.552Z,17.10
2022-09-15T09:08:56.185Z,16.90
2022-09-15T09:11:30.859Z,16.80
2022-09-15T09:14:35.192Z,17.00
2022-09-15T09:17:16.844Z,17.20
2022-09-15T09:20:03.461Z,17.40
2022-09-15T09:22:37.684Z,17.50
2022-09-15T09:25:26.634Z,17.60
2022-09-15T09:28:01.867Z,17.70
2022-09-15T09:30:35.607Z,17.80
2022-09-15T09:33:13.759Z,17.80
2022-09-15T09:35:46.971Z,17.90
2022-09-15T09:38:32.057Z,18.10
2022-09-15T09:41:06.192Z,18.20
2022-09-15T09:43:37.980Z,18.10
2022-09-15T09:46:18.001Z,18.10
2022-09-15T09:48:50.211Z,18.30
2022-09-15T09:51:36.125Z,18.20
2022-09-15T09:54:12.769Z,18.10
2022-09-15T09:56:44.975Z,18.10
2022-09-15T09:59:31.689Z,18.20
2022-09-15T10:02:13.002Z,18.30
2022-09-15T10:04:46.487Z,18.50
2022-09-15T10:07:21.173Z,18.40
2022-09-15T10:10:00.360Z,18.30
2022-09-15T10:12:39.672Z,18.20
2022-09-15T10:15:21.894Z,18.20
2022-09-15T10:17:54.404Z,18.10
2022-09-15T10:20:35.689Z,18.10
2022-09-15T10:23:16.433Z,18.10
2022-09-15T10:25:58.993Z,18.00
2022-09-15T10:28:31.163Z,18.00
2022-09-15T10:31:02.909Z,18.10
2022-09-15T10:33:35.740Z,18.30
2022-09-15T10:36:12.010Z,18.50
2022-09-15T10:38:45.610Z,18.70
2022-09-15T10:41:20.900Z,18.90
2022-09-15T10:44:11.050Z,19.00
2022-09-15T10:46:54.797Z,18.70
2022-09-15T10:49:45.228Z,18.60
2022-09-15T10:52:24.114Z,18.60
2022-09-15T10:55:03.754Z,18.50
2022-09-15T10:57:56.520Z,18.50
2022-09-15T11:00:39.541Z,18.60
2022-09-15T11:03:17.482Z,18.70
2022-09-15T11:05:57.287Z,18.60
2022-09-15T11:08:40.656Z,18.50
2022-09-15T11:11:24.718Z,18.50
2022-09-15T11:14:04.775Z,18.50
2022-09-15T11:16:52.239Z,18.40
2022-09-15T11:19:30.179Z,18.30
2022-09-15T11:22:14.578Z,18.20
2022-09-15T11:24:55.532Z,18.20
2022-09-15T11:27:45.375Z,18.10
2022-09-15T11:30:21.673Z,18.10
2022-09-15T11:32:58.678Z,18.10
2022-09-15T11:35:35.964Z,18.10
2022-09-15T11:38:12.991Z,17.90
2022-09-15T11:40:47.678Z,17.70
2022-09-15T11:43:29.075Z,17.60
2022-09-15T11:46:02.244Z,17.50
2022-09-15T11:48:39.643Z,17.30
2022-09-15T11:51:15.888Z,17.10
2022-09-15T11:53:50.997Z,17.00
2022-09-15T11:56:22.751Z,16.90
2022-09-15T11:59:03.741Z,16.90
2022-09-15T12:01:44.579Z,17.00
2022-09-15T12:04:20.766Z,17.10
2022-09-15T12:06:58.052Z,17.40
2022-09-15T12:09:30.140Z,17.50
2022-09-15T12:12:06.961Z,17.30
2022-09-15T12:14:40.971Z,17.10
2022-09-15T12:17:16.860Z,17.10
2022-09-15T12:20:14.975Z,17.20
2022-09-15T12:22:50.240Z,17.30
2022-09-15T12:25:24.881Z,17.40
2022-09-15T12:28:16.927Z,17.40
2022-09-15T12:30:50.012Z,17.50
2022-09-15T12:33:40.731Z,17.60
2022-09-15T12:36:30.992Z,17.60
2022-09-15T12:39:05.239Z,17.60
2022-09-15T12:41:36.996Z,17.60
2022-09-15T12:44:24.082Z,17.60
2022-09-15T12:46:57.107Z,17.50
2022-09-15T12:49:31.528Z,17.40
2022-09-15T12:52:07.421Z,17.30
2022-09-15T12:54:41.362Z,17.20
2022-09-15T12:57:22.609Z,17.20
2022-09-15T13:00:13.258Z,17.20
2022-09-15T13:02:46.279Z,17.20
2022-09-15T13:05:36.537Z,17.20
2022-09-15T13:08:12.775Z,17.30
2022-09-15T13:11:01.023Z,17.30
2022-09-15T13:13:43.962Z,17.40
2022-09-15T13:16:19.502Z,17.40
2022-09-15T13:18:57.936Z,17.50
2022-09-15T13:21:29.912Z,17.70
2022-09-15T13:24:02.750Z,17.70
2022-09-15T13:26:35.876Z,17.60
2022-09-15T13:29:11.978Z,17.40
2022-09-15T13:31:49.714Z,17.50
2022-09-15T13:40:22.422Z,17.70
2022-09-15T13:43:16.940Z,17.80
2022-09-15T13:45:51.817Z,17.90
2022-09-15T13:48:42.583Z,18.00
2022-09-15T13:51:23.474Z,18.00
2022-09-15T13:54:21.565Z,18.10
2022-09-15T13:56:53.672Z,18.20
2022-09-15T13:59:30.944Z,18.80
2022-09-15T14:02:08.489Z,19.10
2022-09-15T14:04:40.451Z,19.00
2022-09-15T14:07:20.094Z,19.30
2022-09-15T14:09:52.021Z,19.20
2022-09-15T14:12:23.909Z,19.00
2022-09-15T14:14:58.336Z,18.60
2022-09-15T14:17:31.694Z,18.30
2022-09-15T14:20:21.057Z,18.10
2022-09-15T14:22:53.168Z,17.80
2022-09-15T14:25:25.526Z,17.40
2022-09-15T14:27:57.483Z,17.30
2022-09-15T14:30:32.506Z,17.10
2022-09-15T14:33:06.915Z,17.20
2022-09-15T14:35:38.965Z,17.20
2022-09-15T14:38:21.445Z,17.30
2022-09-15T14:40:55.172Z,17.60
2022-09-15T14:43:39.279Z,17.50
2022-09-15T14:46:12.021Z,17.40
2022-09-15T14:48:43.789Z,17.20
2022-09-15T14:51:28.765Z,17.10
2022-09-15T14:54:01.394Z,17.00
2022-09-15T14:56:35.303Z,17.00
2022-09-15T14:59:11.805Z,17.10
2022-09-15T15:01:56.573Z,17.10
2022-09-15T15:04:36.705Z,17.00
2022-09-15T15:07:11.451Z,16.80
2022-09-15T15:09:48.969Z,16.70
2022-09-15T15:12:23.059Z,16.70
2022-09-15T15:14:55.804Z,16.70
2022-09-15T15:17:32.341Z,16.60
2022-09-15T15:20:12.491Z,16.40
2022-09-15T15:22:44.822Z,16.20
2022-09-15T15:25:22.080Z,16.10
2022-09-15T15:27:54.964Z,16.00
2022-09-15T15:30:32.560Z,15.90
2022-09-15T15:33:05.755Z,15.90
2022-09-15T15:35:37.493Z,15.90
2022-09-15T15:38:16.739Z,16.00
2022-09-15T15:40:48.498Z,16.00
2022-09-15T15:43:27.482Z,16.10
2022-09-15T15:46:01.360Z,16.00
2022-09-15T15:48:37.383Z,15.90
2022-09-15T15:51:09.825Z,15.90
2022-09-15T15:53:44.146Z,15.80
2022-09-15T15:56:25.803Z,15.70
2022-09-15T15:58:57.817Z,15.70
2022-09-15T16:01:31.829Z,15.60
2022-09-15T16:04:03.626Z,15.50
2022-09-15T16:06:36.061Z,15.40
2022-09-15T16:09:08.064Z,15.20
2022-09-15T16:11:43.167Z,15.20
2022-09-15T16:14:15.023Z,15.10
2022-09-15T16:16:46.909Z,15.10
2022-09-15T16:19:18.743Z,15.10
2022-09-15T16:21:50.606Z,15.10
2022-09-15T16:24:22.645Z,15.00
2022-09-15T16:26:54.680Z,15.00
2022-09-15T16:29:30.056Z,14.90
2022-09-15T16:32:02.754Z,14.80
2022-09-15T16:34:34.575Z,14.80
2022-09-15T16:37:07.690Z,14.70
2022-09-15T16:39:39.557Z,14.50
2022-09-15T16:42:11.394Z,14.40
2022-09-15T16:44:44.209Z,14.30
2022-09-15T16:47:16.008Z,14.10
2022-09-15T16:49:47.884Z,14.00
2022-09-15T16:52:20.228Z,13.90
2022-09-15T16:54:52.141Z,13.80
2022-09-15T16:57:24.041Z,13.70
2022-09-15T16:59:55.847Z,13.70
2022-09-15T17:02:27.647Z,13.70
2022-09-15T17:04:59.791Z,13.70
2022-09-15T17:07:31.557Z,13.80
2022-09-15T17:10:03.533Z,13.80
2022-09-15T17:12:36.337Z,13.80
2022-09-15T17:15:17.918Z,13.80
2022-09-15T17:17:49.783Z,13.80
2022-09-15T17:20:22.108Z,13.80
2022-09-15T17:22:54.268Z,13.70
2022-09-15T17:25:26.108Z,13.70
2022-09-15T17:27:58.358Z,13.60
2022-09-15T17:30:31.411Z,13.50
2022-09-15T17:33:04.433Z,13.50
2022-09-15T17:35:36.829Z,13.40
2022-09-15T17:38:08.816Z,13.30
2022-09-15T17:40:40.706Z,13.20
2022-09-15T17:43:16.854Z,13.10
2022-09-15T17:45:49.311Z,13.10
2022-09-15T17:48:22.696Z,13.00
2022-09-15T17:50:54.862Z,12.90
2022-09-15T17:53:30.733Z,12.80
2022-09-15T17:56:02.607Z,12.80
2022-09-15T17:58:34.485Z,12.80
2022-09-15T18:01:06.538Z,12.70
2022-09-15T18:03:41.121Z,12.70
2022-09-15T18:06:13.065Z,12.60
2022-09-15T18:08:45.063Z,12.60
2022-09-15T18:11:17.121Z,12.50
2022-09-15T18:13:49.148Z,12.50
2022-09-15T18:16:23.325Z,12.50
2022-09-15T18:18:55.139Z,12.40
2022-09-15T18:21:28.740Z,12.50
2022-09-15T18:24:00.806Z,12.40
2022-09-15T18:26:32.749Z,12.40
2022-09-15T18:29:04.654Z,12.40
2022-09-15T18:31:36.407Z,12.40
2022-09-15T18:34:08.194Z,12.30
2022-09-15T18:36:40.780Z,12.30
2022-09-15T18:39:12.630Z,12.30
2022-09-15T18:41:44.442Z,12.20
2022-09-15T18:44:16.366Z,12.20
2022-09-15T18:46:48.422Z,12.10
2022-09-15T18:49:20.323Z,12.10
2022-09-15T18:51:52.312Z,12.10
2022-09-15T18:54:24.224Z,12.10
2022-09-15T18:56:56.716Z,12.00
2022-09-15T18:59:28.667Z,12.00
2022-09-15T19:02:00.648Z,11.90
2022-09-15T19:04:36.112Z,11.90
2022-09-15T19:07:11.150Z,11.80
2022-09-15T19:09:42.965Z,11.80
2022-09-15T19:12:14.851Z,11.70
2022-09-15T19:14:47.785Z,11.70
2022-09-15T19:17:20.616Z,11.70
2022-09-15T19:19:52.596Z,11.60
2022-09-15T19:22:24.475Z,11.60
2022-09-15T19:24:56.190Z,11.50
2022-09-15T19:27:28.033Z,11.50
2022-09-15T19:30:00.176Z,11.50
2022-09-15T19:32:32.934Z,11.50
2022-09-15T19:35:04.997Z,11.40
2022-09-15T19:37:38.263Z,11.40
2022-09-15T19:40:11.808Z,11.40
2022-09-15T19:42:44.328Z,11.30
2022-09-15T19:45:16.460Z,11.30
2022-09-15T19:47:48.452Z,11.30
2022-09-15T19:50:20.330Z,11.20
2022-09-15T19:52:55.228Z,11.20
2022-09-15T19:55:29.799Z,11.20
2022-09-15T19:58:01.672Z,11.20
2022-09-15T20:00:33.700Z,11.20
2022-09-15T20:03:08.426Z,11.10
2022-09-15T20:05:41.963Z,11.20
2022-09-15T20:08:14.614Z,11.20
2022-09-15T20:10:47.637Z,11.30
2022-09-15T20:13:19.729Z,11.30
2022-09-15T20:15:56.130Z,11.40
2022-09-15T20:18:28.849Z,11.50
2022-09-15T20:21:04.252Z,11.50
2022-09-15T20:23:36.788Z,11.50
2022-09-15T20:26:09.578Z,11.50
2022-09-15T20:28:42.971Z,11.50
2022-09-15T20:31:16.278Z,11.60
2022-09-15T20:33:49.127Z,11.50
2022-09-15T20:36:24.694Z,11.50
2022-09-15T20:39:00.639Z,11.50
2022-09-15T20:41:33.082Z,11.50
2022-09-15T20:44:06.663Z,11.40
2022-09-15T20:46:41.291Z,11.30
2022-09-15T20:49:16.485Z,11.30
2022-09-15T20:51:51.748Z,11.20
2022-09-15T20:54:24.735Z,11.20
2022-09-15T20:56:57.223Z,11.10
2022-09-15T20:59:29.623Z,11.00
2022-09-15T21:02:02.420Z,11.00
2022-09-15T21:04:34.664Z,10.90
2022-09-15T21:07:06.535Z,10.90
2022-09-15T21:09:38.535Z,10.90
2022-09-15T21:12:12.766Z,10.90
2022-09-15T21:14:44.672Z,10.80
2022-09-15T21:17:16.625Z,10.80
2022-09-15T21:19:48.557Z,10.90
2022-09-15T21:22:20.384Z,10.90
2022-09-15T21:24:52.303Z,11.00
2022-09-15T21:27:27.050Z,11.00
2022-09-15T21:29:59.359Z,11.00
2022-09-15T21:32:32.846Z,11.00
2022-09-15T21:35:05.975Z,11.10
2022-09-15T21:37:37.826Z,11.00
2022-09-15T21:40:14.125Z,11.00
2022-09-15T21:42:46.045Z,11.00
2022-09-15T21:45:20.388Z,10.90
2022-09-15T21:47:52.260Z,10.80
2022-09-15T21:50:24.141Z,10.80
2022-09-15T21:52:55.987Z,10.70
2022-09-15T21:55:27.948Z,10.70
2022-09-15T21:58:02.165Z,10.70
2022-09-15T22:00:35.769Z,10.70
2022-09-15T22:03:07.673Z,10.70
2022-09-15T22:05:46.157Z,10.70
2022-09-15T22:08:18.070Z,10.70
2022-09-15T22:10:49.988Z,10.70
2022-09-15T22:13:24.169Z,10.70
2022-09-15T22:16:02.913Z,10.70
2022-09-15T22:18:38.504Z,10.60
2022-09-15T22:21:11.342Z,10.70
2022-09-15T22:23:43.639Z,10.70
2022-09-15T22:26:17.128Z,10.70
2022-09-15T22:28:49.123Z,10.70
2022-09-15T22:31:21.609Z,10.80
2022-09-15T22:33:53.693Z,10.80
2022-09-15T22:36:29.270Z,10.80
2022-09-15T22:39:05.276Z,10.80
2022-09-15T22:41:38.569Z,10.80
2022-09-15T22:44:18.455Z,10.80
2022-09-15T22:46:51.469Z,10.80
2022-09-15T22:49:23.448Z,10.80
2022-09-15T22:51:55.353Z,10.80
2022-09-15T22:54:27.274Z,10.80
2022-09-15T22:56:59.218Z,10.80
2022-09-15T22:59:31.150Z,10.80
2022-09-15T23:02:03.152Z,10.80
2022-09-15T23:04:37.422Z,10.80
2022-09-15T23:07:11.645Z,10.80
2022-09-15T23:09:43.688Z,10.90
2022-09-15T23:12:16.125Z,10.90
2022-09-15T23:14:47.970Z,10.80
2022-09-15T23:17:19.729Z,10.90
2022-09-15T23:19:51.479Z,10.80
2022-09-15T23:22:23.351Z,10.80
2022-09-15T23:24:55.150Z,10.80
2022-09-15T23:27:27.003Z,10.80
2022-09-15T23:29:58.771Z,10.80
2022-09-15T23:32:30.587Z,10.80
2022-09-15T23:35:02.392Z,10.80
2022-09-15T23:37:34.244Z,10.80
2022-09-15T23:40:06.187Z,10.70
2022-09-15T23:42:38.029Z,10.70
2022-09-15T23:45:09.991Z,10.60
2022-09-15T23:47:44.214Z,10.60
2022-09-15T23:50:18.365Z,10.60
2022-09-15T23:52:50.197Z,10.50
2022-09-15T23:55:22.706Z,10.50
2022-09-15T23:57:57.077Z,10.40
